Time;durP1;ratioP1;P1;durP2;ratioP2;P2;SDS_P1;SDS_P2;PMS_P1;PMS_P2;Temp;Humidity;BMP_temperature;BMP_pressure;BME280_temperature;BME280_humidity;BME280_pressure;Samples;Min_cycle;Max_cycle;Signal;HPM_P1;HPM_P2
2021/08/21 00:01:37;;;;;;;10.55;7.10;;;20.20;72.20;;;;;;5052358;28;20029;-80
2021/08/21 00:04:03;;;;;;;7.25;6.55;;;20.10;72.20;;;;;;5052066;28;20025;-81
2021/08/21 00:06:28;;;;;;;9.05;6.72;;;20.10;72.30;;;;;;5051925;28;20494;-80
2021/08/21 00:08:54;;;;;;;12.07;7.65;;;20.10;72.30;;;;;;5055449;28;20384;-81
2021/08/21 00:11:20;;;;;;;10.40;7.10;;;20.10;72.40;;;;;;5056200;28;20412;-81
2021/08/21 00:13:45;;;;;;;13.20;7.13;;;20.00;72.50;;;;;;5057642;28;20021;-81
2021/08/21 00:16:11;;;;;;;9.77;7.00;;;20.00;72.50;;;;;;5060284;28;20029;-80
2021/08/21 00:18:37;;;;;;;8.40;6.20;;;20.00;72.60;;;;;;5060011;28;20467;-79
2021/08/21 00:21:02;;;;;;;9.90;7.00;;;20.00;72.70;;;;;;5055436;28;20025;-79
2021/08/21 00:23:28;;;;;;;11.27;6.97;;;20.00;72.70;;;;;;5055705;28;20107;-79
2021/08/21 00:25:54;;;;;;;9.90;6.55;;;19.90;72.70;;;;;;5055296;28;20036;-79
2021/08/21 00:28:20;;;;;;;10.13;6.50;;;19.90;72.80;;;;;;5055579;28;20025;-79
2021/08/21 00:30:46;;;;;;;7.13;6.40;;;19.90;72.70;;;;;;5054356;28;20040;-80
2021/08/21 00:33:11;;;;;;;7.93;6.78;;;19.90;72.90;;;;;;5055704;28;20804;-80
2021/08/21 00:35:38;;;;;;;13.48;7.22;;;19.90;73.00;;;;;;5055671;28;20029;-81
2021/08/21 00:38:03;;;;;;;7.60;6.80;;;19.80;73.10;;;;;;5055811;28;20029;-80
2021/08/21 00:40:29;;;;;;;8.82;6.90;;;19.80;73.20;;;;;;5055561;28;20104;-80
2021/08/21 00:42:55;;;;;;;8.75;7.05;;;19.80;73.30;;;;;;5055416;28;20028;-80
2021/08/21 00:45:21;;;;;;;9.52;7.00;;;19.70;73.30;;;;;;5055122;28;20119;-80
2021/08/21 00:47:48;;;;;;;7.65;6.85;;;19.70;73.50;;;;;;5055643;28;20531;-80
2021/08/21 00:50:14;;;;;;;11.07;6.90;;;19.70;73.50;;;;;;5055446;28;20029;-80
2021/08/21 00:52:40;;;;;;;9.30;7.07;;;19.70;73.60;;;;;;5055109;28;20021;-80
2021/08/21 00:55:08;;;;;;;8.05;6.80;;;19.70;73.60;;;;;;5054881;28;20029;-80
2021/08/21 00:57:34;;;;;;;8.25;7.10;;;19.70;73.70;;;;;;5054851;28;20067;-80
2021/08/21 01:00:00;;;;;;;7.97;6.65;;;19.70;73.80;;;;;;5054834;28;20032;-80
2021/08/21 01:02:27;;;;;;;9.73;6.60;;;19.60;73.80;;;;;;5054898;28;20064;-80
2021/08/21 01:04:56;;;;;;;9.13;7.30;;;19.60;73.80;;;;;;5054822;28;20025;-79
2021/08/21 01:07:28;;;;;;;9.57;6.90;;;19.60;74.50;;;;;;5054887;28;20025;-80
2021/08/21 01:09:54;;;;;;;;;;;19.60;74.00;;;;;;5055291;28;20021;-82
2021/08/21 01:12:21;;;;;;;8.38;7.28;;;19.60;73.80;;;;;;5053768;28;19905;-81
2021/08/21 01:14:49;;;;;;;9.10;7.45;;;19.60;73.90;;;;;;5054818;28;20021;-81
2021/08/21 01:17:17;;;;;;;12.55;7.10;;;19.50;74.10;;;;;;5055390;28;20021;-82
2021/08/21 01:19:46;;;;;;;9.40;7.47;;;19.50;74.40;;;;;;5055141;28;20433;-80
2021/08/21 01:22:17;;;;;;;10.75;7.75;;;19.50;74.60;;;;;;5055372;28;20036;-80
2021/08/21 01:24:43;;;;;;;9.43;7.90;;;19.40;74.80;;;;;;5054913;28;20546;-80
2021/08/21 01:27:28;;;;;;;8.45;7.38;;;19.40;74.90;;;;;;5054475;28;20025;-80
2021/08/21 01:29:54;;;;;;;9.82;7.57;;;19.40;75.30;;;;;;5054593;28;20017;-80
2021/08/21 01:32:21;;;;;;;11.65;7.95;;;19.40;75.30;;;;;;5054386;28;20095;-79
2021/08/21 01:34:49;;;;;;;10.80;8.05;;;19.40;75.50;;;;;;5054454;28;20040;-80
2021/08/21 01:37:18;;;;;;;8.63;7.75;;;19.40;75.60;;;;;;5054863;28;20021;-80
2021/08/21 01:39:49;;;;;;;8.23;7.38;;;19.30;75.80;;;;;;5054303;28;20033;-80
2021/08/21 01:42:15;;;;;;;9.05;7.60;;;19.30;75.90;;;;;;5054640;28;20039;-80
2021/08/21 01:44:41;;;;;;;10.30;7.55;;;19.30;75.90;;;;;;5053907;28;20025;-81
2021/08/21 01:47:08;;;;;;;9.63;7.90;;;19.30;76.10;;;;;;5055003;28;20031;-80
2021/08/21 01:49:35;;;;;;;10.32;8.05;;;19.30;76.30;;;;;;5054569;28;20024;-80
2021/08/21 01:52:02;;;;;;;10.05;7.68;;;19.30;76.40;;;;;;5054014;28;20104;-79
2021/08/21 01:54:28;;;;;;;10.63;7.70;;;19.20;77.20;;;;;;5054326;28;20029;-81
2021/08/21 01:56:56;;;;;;;9.75;7.95;;;19.30;76.70;;;;;;5054870;28;20459;-80
2021/08/21 01:59:32;;;;;;;10.20;7.80;;;19.20;76.90;;;;;;5053983;28;20116;-81
2021/08/21 02:01:58;;;;;;;11.10;8.18;;;19.20;77.10;;;;;;5054819;28;20075;-81
2021/08/21 02:04:25;;;;;;;8.85;7.85;;;19.20;77.10;;;;;;5055174;28;20028;-83
2021/08/21 02:06:51;;;;;;;11.95;7.75;;;19.20;77.30;;;;;;5055105;28;20036;-81
2021/08/21 02:09:19;;;;;;;8.40;7.53;;;19.20;77.40;;;;;;5054533;28;20387;-81
2021/08/21 02:11:46;;;;;;;10.27;7.68;;;19.10;77.50;;;;;;5054628;28;20464;-81
2021/08/21 02:14:13;;;;;;;11.60;8.63;;;19.10;77.50;;;;;;5054600;28;20025;-80
2021/08/21 02:16:39;;;;;;;12.68;8.20;;;19.10;77.60;;;;;;5054827;28;20031;-80
2021/08/21 02:19:05;;;;;;;10.52;8.52;;;19.10;77.70;;;;;;5053861;28;20029;-81
2021/08/21 02:21:30;;;;;;;11.15;7.90;;;19.10;77.70;;;;;;5053363;28;20021;-81
2021/08/21 02:23:58;;;;;;;15.10;7.78;;;19.10;77.80;;;;;;5054191;28;20025;-81
2021/08/21 02:26:26;;;;;;;10.15;7.72;;;19.10;77.90;;;;;;5055493;28;20025;-82
2021/08/21 02:28:53;;;;;;;9.00;7.97;;;19.10;78.00;;;;;;5058821;28;20021;-81
2021/08/21 02:31:19;;;;;;;10.70;8.35;;;19.10;78.00;;;;;;5052095;28;20078;-80
2021/08/21 02:33:45;;;;;;;9.20;7.53;;;19.10;78.10;;;;;;5052096;28;20025;-81
2021/08/21 02:36:12;;;;;;;9.57;7.82;;;19.10;78.10;;;;;;5052088;28;20032;-80
2021/08/21 02:38:39;;;;;;;8.73;7.75;;;19.10;78.10;;;;;;5052292;28;20100;-81
2021/08/21 02:41:05;;;;;;;8.88;7.97;;;19.10;78.10;;;;;;5052014;28;20043;-80
2021/08/21 02:43:30;;;;;;;12.23;8.13;;;19.10;78.10;;;;;;5052322;28;20021;-80
2021/08/21 02:45:56;;;;;;;10.23;7.93;;;19.10;78.20;;;;;;5050388;28;20470;-80
2021/08/21 02:48:22;;;;;;;9.35;8.15;;;19.10;78.30;;;;;;5051642;28;20048;-80
2021/08/21 02:50:48;;;;;;;9.75;7.53;;;19.00;78.30;;;;;;5051515;28;20586;-80
2021/08/21 02:53:14;;;;;;;9.25;7.93;;;19.00;78.50;;;;;;5052241;28;20049;-79
2021/08/21 02:55:39;;;;;;;10.80;8.57;;;19.00;78.60;;;;;;5053280;28;20060;-79
2021/08/21 02:58:05;;;;;;;8.43;7.50;;;19.00;78.60;;;;;;5052759;28;20839;-80
2021/08/21 03:00:31;;;;;;;8.68;7.50;;;19.00;78.60;;;;;;5052798;28;20083;-80
2021/08/21 03:02:58;;;;;;;8.48;7.50;;;19.00;78.70;;;;;;5052917;28;20025;-80
2021/08/21 03:05:23;;;;;;;9.35;7.78;;;19.00;78.80;;;;;;5052511;28;20033;-80
2021/08/21 03:07:49;;;;;;;13.80;8.65;;;19.00;78.90;;;;;;5052807;28;20362;-80
2021/08/21 03:10:15;;;;;;;11.48;7.75;;;19.10;78.90;;;;;;5052599;28;20021;-80
2021/08/21 03:12:41;;;;;;;13.63;8.85;;;19.10;79.00;;;;;;5051392;28;20025;-80
2021/08/21 03:15:07;;;;;;;10.00;7.85;;;19.30;78.90;;;;;;5052333;28;20028;-80
2021/08/21 03:17:33;;;;;;;9.32;8.43;;;19.50;78.40;;;;;;5052317;28;20035;-80
2021/08/21 03:19:59;;;;;;;10.18;8.30;;;19.80;77.90;;;;;;5052046;28;20467;-80
2021/08/21 03:22:25;;;;;;;11.23;8.25;;;20.20;77.10;;;;;;5052295;28;20025;-80
2021/08/21 03:24:50;;;;;;;15.38;8.07;;;20.50;76.10;;;;;;5051990;28;20468;-80
2021/08/21 03:27:16;;;;;;;11.05;7.43;;;20.90;75.10;;;;;;5052064;28;20025;-79
2021/08/21 03:29:42;;;;;;;12.52;7.65;;;21.20;74.00;;;;;;5051842;28;20082;-80
2021/08/21 03:32:10;;;;;;;9.75;6.93;;;21.60;73.00;;;;;;5052003;28;20075;-80
2021/08/21 03:34:36;;;;;;;9.45;7.18;;;22.00;71.90;;;;;;5052037;28;20021;-79
2021/08/21 03:37:02;;;;;;;8.45;7.13;;;22.50;70.60;;;;;;5051900;28;20053;-79
2021/08/21 03:39:28;;;;;;;10.70;7.15;;;22.90;69.30;;;;;;5051999;28;20064;-80
2021/08/21 03:41:54;;;;;;;9.45;6.22;;;23.40;68.00;;;;;;5051212;28;20049;-79
2021/08/21 03:44:19;;;;;;;10.02;6.63;;;23.90;66.90;;;;;;5051868;28;20471;-79
2021/08/21 03:46:45;;;;;;;9.35;6.90;;;24.40;65.60;;;;;;5051943;28;20059;-79
2021/08/21 03:49:11;;;;;;;8.75;6.43;;;24.90;64.30;;;;;;5051587;28;20025;-78
2021/08/21 03:51:37;;;;;;;9.05;6.32;;;25.40;63.10;;;;;;5050900;28;20029;-79
2021/08/21 03:54:03;;;;;;;9.50;6.82;;;25.90;62.00;;;;;;5049939;28;20055;-80
2021/08/21 03:56:28;;;;;;;8.13;6.28;;;26.40;61.10;;;;;;5051628;28;20085;-79
2021/08/21 03:58:54;;;;;;;7.50;6.03;;;26.90;59.90;;;;;;5051612;28;20471;-80
2021/08/21 04:01:20;;;;;;;7.32;6.45;;;27.50;58.90;;;;;;5051649;28;20075;-80
2021/08/21 04:03:46;;;;;;;9.57;5.90;;;27.90;57.60;;;;;;5051590;28;20032;-80
2021/08/21 04:06:11;;;;;;;7.50;6.47;;;28.40;56.60;;;;;;5051603;28;20025;-79
2021/08/21 04:08:37;;;;;;;7.78;6.10;;;28.90;55.70;;;;;;5051669;28;20027;-80
2021/08/21 04:11:03;;;;;;;9.00;6.68;;;29.40;54.90;;;;;;5051433;28;20025;-80
2021/08/21 04:13:29;;;;;;;7.57;6.07;;;29.90;53.90;;;;;;5051391;28;20025;-80
2021/08/21 04:15:55;;;;;;;9.18;5.95;;;30.30;52.90;;;;;;5051497;28;20032;-80
2021/08/21 04:18:21;;;;;;;11.88;6.65;;;30.60;52.30;;;;;;5051401;28;20036;-79
2021/08/21 04:20:47;;;;;;;9.40;6.80;;;31.00;51.50;;;;;;5051212;28;20100;-79
2021/08/21 04:23:13;;;;;;;13.68;6.75;;;31.50;50.90;;;;;;5051167;28;20178;-80
2021/08/21 04:25:39;;;;;;;10.55;5.88;;;32.00;50.30;;;;;;5051838;28;20029;-79
2021/08/21 04:28:05;;;;;;;11.57;6.45;;;32.40;49.50;;;;;;5052741;28;20344;-80
2021/08/21 04:30:31;;;;;;;6.63;5.95;;;32.80;48.70;;;;;;5053336;28;20041;-80
2021/08/21 04:32:56;;;;;;;8.18;6.28;;;33.20;48.00;;;;;;5051927;28;20032;-79
2021/08/21 04:35:22;;;;;;;6.50;5.20;;;33.60;47.30;;;;;;5051318;28;20029;-79
2021/08/21 04:37:48;;;;;;;9.57;6.65;;;34.00;46.80;;;;;;5051050;28;20407;-80
2021/08/21 04:40:16;;;;;;;8.02;6.72;;;34.40;46.20;;;;;;5051129;28;20044;-79
2021/08/21 04:42:42;;;;;;;9.40;5.40;;;34.80;45.70;;;;;;5050929;28;20017;-80
2021/08/21 04:45:08;;;;;;;11.48;6.30;;;35.20;45.10;;;;;;5051470;28;20032;-79
2021/08/21 04:47:34;;;;;;;9.48;6.15;;;35.60;44.70;;;;;;5050766;28;20067;-79
2021/08/21 04:49:59;;;;;;;7.05;6.30;;;36.00;44.30;;;;;;5050776;28;20021;-79
2021/08/21 04:52:25;;;;;;;6.38;5.78;;;36.30;43.70;;;;;;5050774;28;20536;-79
2021/08/21 04:54:51;;;;;;;8.35;6.25;;;36.60;43.20;;;;;;5053707;28;20086;-78
2021/08/21 04:57:17;;;;;;;10.20;5.97;;;37.00;42.80;;;;;;5054218;28;20064;-79
2021/08/21 04:59:43;;;;;;;7.72;5.80;;;37.30;42.30;;;;;;5054675;28;20025;-79
2021/08/21 05:02:09;;;;;;;13.73;6.13;;;37.60;41.70;;;;;;5054431;28;20028;-79
2021/08/21 05:04:35;;;;;;;7.30;5.70;;;37.90;41.40;;;;;;5054572;28;20429;-80
2021/08/21 05:07:01;;;;;;;5.63;5.13;;;38.20;41.10;;;;;;5054096;28;20115;-79
2021/08/21 05:09:27;;;;;;;6.82;5.28;;;38.50;40.70;;;;;;5053028;28;20048;-80
2021/08/21 05:11:52;;;;;;;9.20;5.50;;;38.70;40.30;;;;;;5054259;28;20033;-79
2021/08/21 05:14:18;;;;;;;8.68;7.43;;;39.00;40.10;;;;;;5054383;28;20033;-80
2021/08/21 05:16:46;;;;;;;7.35;5.70;;;39.30;39.80;;;;;;5054660;28;20021;-80
2021/08/21 05:24:44;;;;;;;7.63;5.55;;;40.00;38.70;;;;;;5054342;28;20059;-80
2021/08/21 05:27:10;;;;;;;8.43;6.25;;;40.40;38.60;;;;;;5054029;28;20029;-81
2021/08/21 05:29:36;;;;;;;7.13;5.78;;;40.60;38.20;;;;;;5053848;28;20036;-80
2021/08/21 05:32:02;;;;;;;6.30;5.50;;;40.90;38.10;;;;;;5053811;28;20021;-81
2021/08/21 05:34:27;;;;;;;8.10;6.60;;;41.00;37.80;;;;;;5053931;28;20024;-80
2021/08/21 05:36:53;;;;;;;8.93;5.88;;;41.20;37.50;;;;;;5053382;28;20031;-79
2021/08/21 05:39:19;;;;;;;10.82;6.15;;;41.50;37.30;;;;;;5053866;28;20048;-81
2021/08/21 05:41:45;;;;;;;12.40;5.88;;;41.80;37.10;;;;;;5053653;28;20032;-81
2021/08/21 05:44:10;;;;;;;6.13;5.30;;;42.10;37.00;;;;;;5053182;28;20029;-81
2021/08/21 05:46:36;;;;;;;9.80;6.53;;;42.40;36.70;;;;;;5053562;28;20400;-80
2021/08/21 05:49:02;;;;;;;9.23;5.47;;;42.60;36.40;;;;;;5053312;28;20086;-80
2021/08/21 05:51:29;;;;;;;8.82;5.40;;;42.90;36.20;;;;;;5052991;28;20025;-80
2021/08/21 05:53:56;;;;;;;6.43;5.68;;;43.10;36.00;;;;;;5053265;28;20017;-80
2021/08/21 05:56:22;;;;;;;7.45;6.13;;;43.30;35.70;;;;;;5053086;28;20056;-80
2021/08/21 05:58:47;;;;;;;6.95;5.68;;;43.50;35.70;;;;;;5053594;28;20047;-80
2021/08/21 06:01:13;;;;;;;6.43;5.15;;;43.80;35.50;;;;;;5053388;28;20021;-80
2021/08/21 06:03:39;;;;;;;10.05;5.78;;;43.90;35.20;;;;;;5053171;28;20052;-80
2021/08/21 06:06:05;;;;;;;6.43;5.55;;;44.00;34.90;;;;;;5055908;28;20029;-80
2021/08/21 06:08:30;;;;;;;7.90;5.47;;;44.20;34.90;;;;;;5052559;28;20025;-80
2021/08/21 06:10:57;;;;;;;7.00;5.63;;;44.40;34.80;;;;;;5052695;28;20808;-81
2021/08/21 06:13:23;;;;;;;8.23;5.68;;;44.50;34.60;;;;;;5055357;28;20028;-81
2021/08/21 06:15:49;;;;;;;7.03;5.22;;;44.70;34.50;;;;;;5053041;28;20021;-81
2021/08/21 06:18:15;;;;;;;9.40;5.32;;;44.90;34.40;;;;;;5052489;28;20025;-81
2021/08/21 06:20:41;;;;;;;7.70;5.20;;;45.00;34.20;;;;;;5052618;28;20432;-81
2021/08/21 06:23:06;;;;;;;11.32;6.00;;;45.10;34.20;;;;;;5052678;28;20043;-81
2021/08/21 06:25:32;;;;;;;7.70;5.40;;;45.10;34.10;;;;;;5052795;28;20088;-81
2021/08/21 06:27:58;;;;;;;6.93;5.40;;;45.10;34.00;;;;;;5052764;28;20025;-82
2021/08/21 06:30:23;;;;;;;5.53;5.07;;;45.10;34.00;;;;;;5052466;28;20059;-81
2021/08/21 06:32:49;;;;;;;7.88;5.50;;;45.00;33.90;;;;;;5052214;28;20099;-82
2021/08/21 06:35:15;;;;;;;6.13;5.25;;;45.10;33.90;;;;;;5052086;28;20192;-81
2021/08/21 06:37:41;;;;;;;12.50;5.32;;;45.10;33.80;;;;;;5052497;28;20036;-81
2021/08/21 06:40:07;;;;;;;8.13;6.25;;;45.20;33.90;;;;;;5052022;28;20052;-81
2021/08/21 06:42:33;;;;;;;12.70;6.03;;;45.10;33.80;;;;;;5052077;28;20471;-80
2021/08/21 06:44:58;;;;;;;12.38;7.82;;;45.10;33.80;;;;;;5052069;28;20078;-82
2021/08/21 06:47:24;;;;;;;9.25;5.22;;;45.10;34.00;;;;;;5051551;28;20368;-82
2021/08/21 06:49:50;;;;;;;6.45;5.20;;;45.10;33.90;;;;;;5052518;28;20028;-81
2021/08/21 06:52:15;;;;;;;8.50;4.82;;;45.10;33.90;;;;;;5052562;28;20471;-81
2021/08/21 06:54:41;;;;;;;7.43;5.32;;;45.10;33.80;;;;;;5052596;28;20029;-83
2021/08/21 06:57:07;;;;;;;6.22;5.15;;;45.00;33.90;;;;;;5052096;28;20048;-81
2021/08/21 06:59:33;;;;;;;6.65;4.80;;;44.80;34.00;;;;;;5051925;28;20115;-81
2021/08/21 07:02:00;;;;;;;8.32;4.40;;;44.80;34.10;;;;;;5051810;28;20025;-81
2021/08/21 07:04:26;;;;;;;7.55;4.35;;;44.60;33.90;;;;;;5050757;28;20420;-81
2021/08/21 07:06:52;;;;;;;6.40;4.45;;;44.50;34.00;;;;;;5051891;28;20159;-80
2021/08/21 07:09:17;;;;;;;5.05;4.47;;;44.40;34.10;;;;;;5051641;28;20448;-82
2021/08/21 07:11:43;;;;;;;6.60;4.57;;;44.30;34.20;;;;;;5051209;28;20025;-81
2021/08/21 07:14:09;;;;;;;4.80;4.15;;;44.10;34.80;;;;;;5050446;28;20025;-82
2021/08/21 07:16:35;;;;;;;6.00;5.00;;;43.90;34.10;;;;;;5049809;28;20020;-80
2021/08/21 07:19:01;;;;;;;6.72;4.50;;;43.90;34.30;;;;;;5048717;28;20035;-81
2021/08/21 07:21:27;;;;;;;7.10;4.47;;;43.70;34.40;;;;;;5050137;28;20024;-82
2021/08/21 07:23:53;;;;;;;7.72;6.05;;;43.70;34.30;;;;;;5050411;28;20017;-83
2021/08/21 07:26:18;;;;;;;11.65;4.72;;;43.50;34.30;;;;;;5050062;28;20021;-81
2021/08/21 07:28:44;;;;;;;8.63;4.30;;;43.20;34.30;;;;;;5050284;28;20021;-82
2021/08/21 07:31:10;;;;;;;5.25;4.30;;;43.00;34.40;;;;;;5050337;28;20017;-82
2021/08/21 07:33:35;;;;;;;4.97;4.40;;;42.80;34.40;;;;;;5050152;28;20101;-81
2021/08/21 07:36:01;;;;;;;5.97;4.10;;;42.60;34.50;;;;;;5050523;28;20356;-80
2021/08/21 07:38:27;;;;;;;6.47;4.60;;;42.40;34.70;;;;;;5050348;28;20033;-81
2021/08/21 07:40:53;;;;;;;6.43;4.30;;;42.40;35.00;;;;;;5048705;28;20013;-80
2021/08/21 07:43:18;;;;;;;7.53;4.72;;;42.20;35.10;;;;;;5048785;28;20029;-81
2021/08/21 07:45:46;;;;;;;5.65;4.55;;;42.00;35.30;;;;;;5049921;28;20021;-81
2021/08/21 07:48:15;;;;;;;4.90;4.05;;;41.80;35.40;;;;;;5049675;28;20017;-80
2021/08/21 07:50:42;;;;;;;6.78;4.35;;;41.60;35.40;;;;;;5050041;28;20016;-81
2021/08/21 07:53:08;;;;;;;8.65;4.32;;;41.40;35.50;;;;;;5051002;28;20021;-79
2021/08/21 07:55:34;;;;;;;5.55;4.10;;;41.10;35.40;;;;;;5051224;28;20036;-80
2021/08/21 07:58:00;;;;;;;5.72;4.28;;;40.90;35.60;;;;;;5050413;28;20057;-80
2021/08/21 08:00:25;;;;;;;8.50;4.82;;;40.60;35.70;;;;;;5049321;28;20028;-80
2021/08/21 08:02:51;;;;;;;7.68;4.65;;;40.40;35.90;;;;;;5050810;28;20032;-79
2021/08/21 08:05:17;;;;;;;4.60;4.10;;;40.20;36.00;;;;;;5050486;28;20029;-79
2021/08/21 08:07:42;;;;;;;9.80;4.55;;;39.90;36.10;;;;;;5050196;28;20368;-80
2021/08/21 08:10:09;;;;;;;11.25;4.72;;;39.70;36.50;;;;;;5051178;28;20017;-80
2021/08/21 08:12:35;;;;;;;9.75;5.70;;;39.40;36.80;;;;;;5050505;28;20028;-80
2021/08/21 08:15:01;;;;;;;11.20;4.97;;;39.10;37.10;;;;;;5050716;28;20018;-78
2021/08/21 08:17:27;;;;;;;5.72;4.63;;;38.80;37.30;;;;;;5050661;28;20436;-80
2021/08/21 08:19:52;;;;;;;8.70;4.90;;;38.50;37.40;;;;;;5050583;28;20025;-79
2021/08/21 08:22:19;;;;;;;11.90;4.72;;;38.20;37.80;;;;;;5050792;28;20549;-81
2021/08/21 08:24:46;;;;;;;7.75;5.43;;;37.90;38.00;;;;;;5049593;28;20162;-80
2021/08/21 08:27:15;;;;;;;6.15;4.47;;;37.70;38.40;;;;;;5050586;28;20018;-81
2021/08/21 08:29:40;;;;;;;9.30;4.38;;;37.50;38.40;;;;;;5053217;28;20029;-79
2021/08/21 08:32:06;;;;;;;8.55;4.90;;;37.40;38.40;;;;;;5054817;28;20083;-80
2021/08/21 08:34:32;;;;;;;8.43;4.70;;;37.20;38.40;;;;;;5054464;28;20105;-81
2021/08/21 08:36:58;;;;;;;12.15;4.65;;;37.10;38.70;;;;;;5053150;28;20056;-79
2021/08/21 08:39:23;;;;;;;8.40;5.38;;;36.90;39.10;;;;;;5053962;28;20025;-79
2021/08/21 08:41:51;;;;;;;7.57;4.40;;;36.70;39.40;;;;;;5054624;28;20497;-80
2021/08/21 08:44:18;;;;;;;9.25;5.15;;;36.60;39.80;;;;;;5054307;28;20083;-78
2021/08/21 08:46:44;;;;;;;11.80;4.90;;;36.50;39.90;;;;;;5054210;28;20394;-79
2021/08/21 08:49:10;;;;;;;8.68;4.72;;;36.40;39.70;;;;;;5054107;28;20618;-80
2021/08/21 08:51:36;;;;;;;6.18;4.80;;;36.40;39.70;;;;;;5054295;28;20132;-79
2021/08/21 08:54:02;;;;;;;6.85;5.40;;;36.20;39.60;;;;;;5054877;28;20337;-89
2021/08/21 08:56:28;;;;;;;11.30;5.07;;;35.80;39.60;;;;;;5056418;28;20395;-88
2021/08/21 08:58:54;;;;;;;7.20;4.03;;;35.40;39.80;;;;;;5057570;28;20032;-87
2021/08/21 09:01:20;;;;;;;8.00;4.22;;;35.20;40.00;;;;;;5058800;28;20328;-87
2021/08/21 09:03:47;;;;;;;4.25;3.85;;;35.00;40.30;;;;;;5057193;28;20028;-87
2021/08/21 09:06:13;;;;;;;7.32;4.25;;;34.60;40.60;;;;;;5055248;28;20029;-87
2021/08/21 09:08:40;;;;;;;5.47;4.18;;;34.40;41.40;;;;;;5057250;28;20383;-87
2021/08/21 09:11:23;;;;;;;5.55;4.30;;;34.10;41.80;;;;;;5057106;28;20013;-88
2021/08/21 09:13:50;;;;;;;13.90;6.18;;;33.70;42.40;;;;;;5056348;28;20051;-87
2021/08/21 09:16:26;;;;;;;6.18;4.65;;;33.40;43.00;;;;;;5056160;28;20387;-86
2021/08/21 09:19:04;;;;;;;9.05;5.07;;;33.10;43.30;;;;;;5055538;28;20041;-88
2021/08/21 09:21:30;;;;;;;10.10;5.63;;;32.90;43.60;;;;;;5056077;28;20028;-87
2021/08/21 09:23:55;;;;;;;8.65;5.47;;;32.60;43.90;;;;;;5054535;28;20024;-86
2021/08/21 09:26:39;;;;;;;9.35;5.10;;;32.30;44.30;;;;;;5055625;28;20135;-88
2021/08/21 09:29:05;;;;;;;8.23;6.18;;;32.10;44.60;;;;;;5055409;28;20096;-86
2021/08/21 09:31:33;;;;;;;6.32;4.85;;;31.90;45.00;;;;;;5054634;28;20057;-86
2021/08/21 09:34:08;;;;;;;8.43;5.20;;;31.80;45.50;;;;;;5053765;28;20021;-86
2021/08/21 09:36:37;;;;;;;7.82;4.80;;;31.70;45.00;;;;;;5055591;28;20533;-85
2021/08/21 09:39:06;;;;;;;9.68;5.38;;;31.50;45.00;;;;;;5055130;28;20056;-85
2021/08/21 09:41:51;;;;;;;8.88;4.90;;;31.40;45.40;;;;;;5055537;28;20031;-84
2021/08/21 09:44:28;;;;;;;19.52;10.00;;;31.20;45.50;;;;;;5056985;28;20387;-84
2021/08/21 09:47:29;;;;;;;8.63;5.43;;;31.10;45.70;;;;;;5060039;28;20017;-84
2021/08/21 09:50:14;;;;;;;;;;;31.20;46.00;;;;;;5060088;28;20467;-84
2021/08/21 09:52:40;;;;;;;7.88;4.95;;;31.50;45.60;;;;;;5055648;28;19904;-84
2021/08/21 09:55:09;;;;;;;7.75;4.70;;;31.80;45.70;;;;;;5053863;28;20067;-84
2021/08/21 09:57:35;;;;;;;5.80;4.60;;;32.00;45.50;;;;;;5054767;28;20059;-87
2021/08/21 10:00:04;;;;;;;8.20;4.75;;;32.10;45.30;;;;;;5054868;28;20414;-85
2021/08/21 10:02:32;;;;;;;8.50;6.15;;;31.90;45.10;;;;;;5053460;28;20383;-84
2021/08/21 10:04:59;;;;;;;7.05;4.97;;;31.70;45.20;;;;;;5054603;28;20032;-84
2021/08/21 10:07:32;;;;;;;7.35;4.82;;;31.60;45.50;;;;;;5053307;28;20017;-86
2021/08/21 10:10:01;;;;;;;8.30;4.70;;;31.60;45.60;;;;;;5055098;28;20020;-85
2021/08/21 10:12:27;;;;;;;4.78;4.38;;;31.60;45.60;;;;;;5054706;28;20025;-85
2021/08/21 10:14:53;;;;;;;9.73;4.63;;;31.40;45.40;;;;;;5054426;28;20017;-84
2021/08/21 10:17:20;;;;;;;7.22;5.78;;;31.40;45.40;;;;;;5054566;28;20021;-83
2021/08/21 10:19:47;;;;;;;11.40;4.78;;;31.40;45.50;;;;;;5054233;28;20021;-83
2021/08/21 10:22:14;;;;;;;8.27;5.22;;;31.60;45.30;;;;;;5054621;28;20096;-84
2021/08/21 10:24:42;;;;;;;9.23;4.90;;;31.70;45.00;;;;;;5053218;28;20108;-84
2021/08/21 10:27:28;;;;;;;8.60;5.30;;;31.80;44.80;;;;;;5054632;28;20029;-83
2021/08/21 10:30:15;;;;;;;8.88;4.60;;;31.80;44.60;;;;;;5054526;28;20032;-84
2021/08/21 10:32:43;;;;;;;5.90;4.88;;;31.70;44.30;;;;;;5054373;28;20398;-83
2021/08/21 10:35:13;;;;;;;9.30;4.88;;;31.60;44.60;;;;;;5054936;28;20021;-83
2021/08/21 10:37:47;;;;;;;7.47;4.93;;;31.50;44.90;;;;;;5053614;28;20061;-83
2021/08/21 10:40:37;;;;;;;6.35;5.75;;;31.40;45.00;;;;;;5054287;28;20033;-82
2021/08/21 10:43:05;;;;;;;8.20;4.40;;;31.40;44.90;;;;;;5051481;28;20044;-83
2021/08/21 10:45:42;;;;;;;5.88;3.92;;;31.50;44.90;;;;;;5054670;28;20489;-83
2021/08/21 10:48:11;;;;;;;6.35;4.22;;;31.50;44.30;;;;;;5054197;28;20033;-83
2021/08/21 10:50:46;;;;;;;4.60;3.60;;;31.60;44.20;;;;;;5054300;28;20032;-83
2021/08/21 10:53:23;;;;;;;6.97;3.70;;;31.60;43.90;;;;;;5052893;28;20104;-83
2021/08/21 10:55:49;;;;;;;6.50;3.90;;;31.70;43.50;;;;;;5054569;28;20032;-84
2021/08/21 10:58:19;;;;;;;9.15;3.70;;;31.70;43.40;;;;;;5054156;28;20052;-83
2021/08/21 11:00:54;;;;;;;8.32;3.65;;;31.70;43.20;;;;;;5054039;28;20025;-83
2021/08/21 11:03:23;;;;;;;5.35;3.90;;;31.70;43.00;;;;;;5055908;28;20029;-83
2021/08/21 11:05:53;;;;;;;14.60;4.22;;;31.70;42.90;;;;;;5054526;28;20056;-82
2021/08/21 11:08:21;;;;;;;6.18;4.10;;;31.60;42.90;;;;;;5056292;28;20056;-83
2021/08/21 11:10:48;;;;;;;5.40;3.75;;;31.60;42.80;;;;;;5057249;28;20112;-83
2021/08/21 11:13:56;;;;;;;9.77;4.60;;;31.60;42.70;;;;;;5061317;28;20380;-84
2021/08/21 11:16:23;;;;;;;7.15;3.58;;;31.60;42.80;;;;;;5052179;28;20392;-83
2021/08/21 11:18:53;;;;;;;7.78;3.67;;;31.60;42.80;;;;;;5053575;28;20426;-83
2021/08/21 11:21:40;;;;;;;6.93;3.97;;;31.60;42.80;;;;;;5053744;28;20025;-82
2021/08/21 11:24:24;;;;;;;11.77;6.05;;;31.40;43.00;;;;;;5057178;28;20487;-83
2021/08/21 11:27:12;;;;;;;7.20;5.38;;;31.00;43.10;;;;;;5053247;28;20102;-83
2021/08/21 11:30:09;;;;;;;6.70;3.90;;;30.80;43.50;;;;;;5053517;28;20407;-83
2021/08/21 11:32:46;;;;;;;7.13;4.07;;;30.80;43.20;;;;;;5053790;28;20467;-83
2021/08/21 11:35:25;;;;;;;8.88;4.75;;;30.80;43.40;;;;;;5053135;28;20109;-83
2021/08/21 11:37:58;;;;;;;5.53;4.25;;;30.70;43.50;;;;;;5052711;28;20151;-83
2021/08/21 11:40:43;;;;;;;9.57;4.53;;;30.50;43.80;;;;;;5053628;28;20032;-84
2021/08/21 11:43:14;;;;;;;11.35;4.80;;;30.30;44.70;;;;;;5052238;28;20024;-82
2021/08/21 11:45:41;;;;;;;6.07;4.32;;;30.10;44.10;;;;;;5052854;28;20025;-83
2021/08/21 11:48:08;;;;;;;6.45;3.78;;;29.90;44.40;;;;;;5053108;28;20037;-84
2021/08/21 11:50:39;;;;;;;4.53;4.10;;;29.90;44.70;;;;;;5052703;28;20023;-84
2021/08/21 11:53:09;;;;;;;7.72;4.38;;;29.90;44.50;;;;;;5053089;28;20017;-84
2021/08/21 11:55:37;;;;;;;7.28;4.55;;;29.90;44.50;;;;;;5053376;28;20487;-84
2021/08/21 11:58:04;;;;;;;9.90;4.10;;;29.90;44.50;;;;;;5054430;28;20060;-84
2021/08/21 12:00:33;;;;;;;6.07;4.38;;;29.90;44.40;;;;;;5053857;28;20049;-83
2021/08/21 12:03:04;;;;;;;6.63;4.18;;;29.80;44.50;;;;;;5058566;28;20025;-88
2021/08/21 12:05:34;;;;;;;6.75;5.15;;;29.80;44.90;;;;;;5059899;28;20031;-86
2021/08/21 12:08:13;;;;;;;5.97;4.85;;;29.90;44.60;;;;;;5057670;28;20468;-86
2021/08/21 12:10:50;;;;;;;5.68;4.25;;;29.80;45.60;;;;;;5057794;28;20025;-87
2021/08/21 12:13:34;;;;;;;6.57;4.80;;;29.70;45.00;;;;;;5057645;28;20025;-87
2021/08/21 12:16:11;;;;;;;11.75;5.10;;;29.60;44.90;;;;;;5057273;28;20029;-87
2021/08/21 12:18:39;;;;;;;9.48;4.50;;;29.50;45.10;;;;;;5057607;28;20035;-87
2021/08/21 12:21:06;;;;;;;6.88;4.43;;;29.50;45.10;;;;;;5057811;28;20025;-86
2021/08/21 12:23:34;;;;;;;8.63;5.03;;;29.60;45.10;;;;;;5057801;28;20051;-87
2021/08/21 12:26:01;;;;;;;7.05;4.43;;;29.70;45.00;;;;;;5058845;28;20067;-87
2021/08/21 12:28:39;;;;;;;7.57;4.50;;;29.80;45.00;;;;;;5055887;28;20021;-86
2021/08/21 12:31:10;;;;;;;8.93;4.00;;;29.90;44.90;;;;;;5062585;28;20021;-85
2021/08/21 12:33:38;;;;;;;10.10;6.13;;;30.00;44.80;;;;;;5067743;28;20017;-85
2021/08/21 12:36:43;;;;;;;8.55;4.60;;;29.90;44.70;;;;;;5069824;28;20467;-83
2021/08/21 12:39:14;;;;;;;6.88;4.57;;;29.80;44.60;;;;;;5040904;28;20037;-85
2021/08/21 12:41:50;;;;;;;11.63;5.10;;;29.70;44.50;;;;;;5056999;28;20025;-85
2021/08/21 12:44:18;;;;;;;7.78;4.78;;;29.50;44.60;;;;;;5056674;28;20057;-84
2021/08/21 12:47:01;;;;;;;6.60;4.68;;;29.40;44.90;;;;;;5056397;28;20436;-85
2021/08/21 12:49:38;;;;;;;8.25;4.65;;;29.20;45.20;;;;;;5056095;28;20044;-84
2021/08/21 12:52:13;;;;;;;7.35;4.40;;;29.10;45.50;;;;;;5055967;28;20021;-85
2021/08/21 12:54:43;;;;;;;6.78;5.18;;;29.00;45.30;;;;;;5056132;28;20096;-83
2021/08/21 12:57:13;;;;;;;7.00;4.15;;;29.00;45.50;;;;;;5054542;28;20480;-85